Terminal Aerodrome Forecast
Issued by NWS

Home | Current Version | Previous Version | Text Only | Print | Product List | Glossary On
Versions: 1 2 3 4 5 6 7 8 9 10 11 12 13 14 15 16
000
FTUS45 KFGZ 181700
TAFPRC
TAF
KPRC 181731Z 1818/1918 17015G22KT P6SM FEW080 OVC140
     FM182100 16014G21KT P6SM BKN060 OVC100
      TEMPO 1822/1902 -SHRA BKN040
     FM190200 14006KT P6SM BKN070=

USA.gov is the U.S. government's official web portal to all federal, state and local government web resources and services.